sensor_id;sensor_type;location;lat;lon;timestamp;pressure;altitude;pressure_sealevel;temperature;humidity
10921;BME280;5513;50.580;8.818;2023-04-15T00:01:09;98186.69;;;8.80;100.00
10921;BME280;5513;50.580;8.818;2023-04-15T00:03:39;98186.16;;;8.75;100.00
10921;BME280;5513;50.580;8.818;2023-04-15T00:06:09;98185.19;;;8.76;100.00
10921;BME280;5513;50.580;8.818;2023-04-15T00:08:38;98178.69;;;8.69;100.00
10921;BME280;5513;50.580;8.818;2023-04-15T00:11:06;98179.00;;;8.64;100.00
10921;BME280;5513;50.580;8.818;2023-04-15T00:13:34;98172.16;;;8.49;100.00
10921;BME280;5513;50.580;8.818;2023-04-15T00:16:03;98173.34;;;8.45;100.00
10921;BME280;5513;50.580;8.818;2023-04-15T00:18:31;98165.50;;;8.56;100.00
10921;BME280;5513;50.580;8.818;2023-04-15T00:20:59;98176.53;;;8.37;100.00
10921;BME280;5513;50.580;8.818;2023-04-15T00:23:29;98171.97;;;8.39;100.00
10921;BME280;5513;50.580;8.818;2023-04-15T00:25:59;98169.22;;;8.28;100.00
10921;BME280;5513;50.580;8.818;2023-04-15T00:28:27;98168.09;;;8.07;100.00
10921;BME280;5513;50.580;8.818;2023-04-15T00:30:56;98169.69;;;7.96;100.00
10921;BME280;5513;50.580;8.818;2023-04-15T00:33:25;98164.09;;;7.88;100.00
10921;BME280;5513;50.580;8.818;2023-04-15T00:35:53;98168.03;;;7.83;100.00
10921;BME280;5513;50.580;8.818;2023-04-15T00:38:21;98161.69;;;7.85;100.00
10921;BME280;5513;50.580;8.818;2023-04-15T00:40:51;98163.06;;;7.65;100.00
10921;BME280;5513;50.580;8.818;2023-04-15T00:43:19;98164.94;;;7.89;100.00
10921;BME280;5513;50.580;8.818;2023-04-15T00:45:47;98159.34;;;7.81;100.00
10921;BME280;5513;50.580;8.818;2023-04-15T00:48:17;98160.13;;;7.83;100.00
10921;BME280;5513;50.580;8.818;2023-04-15T00:50:45;98158.53;;;7.93;100.00
10921;BME280;5513;50.580;8.818;2023-04-15T00:53:14;98149.75;;;7.80;100.00
10921;BME280;5513;50.580;8.818;2023-04-15T00:55:42;98158.09;;;7.86;100.00
10921;BME280;5513;50.580;8.818;2023-04-15T00:58:12;98162.53;;;7.86;100.00
10921;BME280;5513;50.580;8.818;2023-04-15T01:00:42;98162.75;;;7.83;100.00
10921;BME280;5513;50.580;8.818;2023-04-15T01:03:11;98165.41;;;7.83;100.00
10921;BME280;5513;50.580;8.818;2023-04-15T01:05:40;98168.53;;;7.88;100.00
10921;BME280;5513;50.580;8.818;2023-04-15T01:08:08;98162.94;;;7.80;100.00
10921;BME280;5513;50.580;8.818;2023-04-15T01:10:36;98165.16;;;7.86;100.00
10921;BME280;5513;50.580;8.818;2023-04-15T01:13:05;98145.88;;;7.85;100.00
10921;BME280;5513;50.580;8.818;2023-04-15T01:15:35;98154.19;;;7.79;100.00
10921;BME280;5513;50.580;8.818;2023-04-15T01:18:06;98153.97;;;7.69;100.00
10921;BME280;5513;50.580;8.818;2023-04-15T01:20:35;98160.94;;;7.58;100.00
10921;BME280;5513;50.580;8.818;2023-04-15T01:23:03;98156.19;;;7.50;100.00
10921;BME280;5513;50.580;8.818;2023-04-15T01:25:33;98159.22;;;7.31;100.00
10921;BME280;5513;50.580;8.818;2023-04-15T01:28:01;98160.91;;;7.32;100.00
10921;BME280;5513;50.580;8.818;2023-04-15T01:30:33;98155.63;;;7.32;100.00
10921;BME280;5513;50.580;8.818;2023-04-15T01:33:01;98159.09;;;7.33;100.00
10921;BME280;5513;50.580;8.818;2023-04-15T01:35:29;98154.97;;;7.16;100.00
10921;BME280;5513;50.580;8.818;2023-04-15T01:38:04;98164.66;;;7.15;100.00
10921;BME280;5513;50.580;8.818;2023-04-15T01:40:34;98158.13;;;7.21;100.00
10921;BME280;5513;50.580;8.818;2023-04-15T01:43:03;98158.03;;;7.23;100.00
10921;BME280;5513;50.580;8.818;2023-04-15T01:45:31;98150.47;;;7.31;100.00
10921;BME280;5513;50.580;8.818;2023-04-15T01:47:59;98154.09;;;7.03;100.00
10921;BME280;5513;50.580;8.818;2023-04-15T01:50:27;98149.09;;;7.25;100.00
10921;BME280;5513;50.580;8.818;2023-04-15T01:52:56;98149.72;;;7.29;100.00
10921;BME280;5513;50.580;8.818;2023-04-15T01:55:24;98145.75;;;7.36;100.00
10921;BME280;5513;50.580;8.818;2023-04-15T01:57:54;98145.53;;;7.39;100.00
10921;BME280;5513;50.580;8.818;2023-04-15T02:00:22;98147.53;;;7.48;100.00
10921;BME280;5513;50.580;8.818;2023-04-15T02:02:50;98149.38;;;7.21;100.00
10921;BME280;5513;50.580;8.818;2023-04-15T02:05:19;98152.69;;;7.24;100.00
10921;BME280;5513;50.580;8.818;2023-04-15T02:07:47;98153.91;;;7.06;100.00
10921;BME280;5513;50.580;8.818;2023-04-15T02:10:15;98167.41;;;6.87;100.00
10921;BME280;5513;50.580;8.818;2023-04-15T02:12:43;98161.91;;;6.77;100.00
10921;BME280;5513;50.580;8.818;2023-04-15T02:15:13;98161.81;;;6.65;100.00
10921;BME280;5513;50.580;8.818;2023-04-15T02:17:41;98163.38;;;6.54;100.00
10921;BME280;5513;50.580;8.818;2023-04-15T02:20:11;98162.41;;;6.55;100.00
10921;BME280;5513;50.580;8.818;2023-04-15T02:22:40;98160.94;;;6.51;100.00
10921;BME280;5513;50.580;8.818;2023-04-15T02:25:08;98162.88;;;6.62;100.00
10921;BME280;5513;50.580;8.818;2023-04-15T02:27:37;98161.75;;;6.66;100.00
10921;BME280;5513;50.580;8.818;2023-04-15T02:30:06;98169.25;;;6.72;100.00
10921;BME280;5513;50.580;8.818;2023-04-15T02:32:36;98170.06;;;6.87;100.00
10921;BME280;5513;50.580;8.818;2023-04-15T02:35:06;98168.78;;;6.93;100.00
10921;BME280;5513;50.580;8.818;2023-04-15T02:37:36;98174.16;;;6.91;100.00
10921;BME280;5513;50.580;8.818;2023-04-15T02:40:10;98178.78;;;6.87;100.00
10921;BME280;5513;50.580;8.818;2023-04-15T02:42:39;98181.88;;;6.67;100.00
10921;BME280;5513;50.580;8.818;2023-04-15T02:45:08;98177.03;;;6.74;100.00
10921;BME280;5513;50.580;8.818;2023-04-15T02:47:38;98170.88;;;6.46;100.00
10921;BME280;5513;50.580;8.818;2023-04-15T02:50:10;98164.72;;;6.33;100.00
10921;BME280;5513;50.580;8.818;2023-04-15T02:52:39;98179.81;;;6.44;100.00
10921;BME280;5513;50.580;8.818;2023-04-15T02:55:08;98172.97;;;6.27;100.00
10921;BME280;5513;50.580;8.818;2023-04-15T02:57:36;98165.41;;;6.22;100.00
10921;BME280;5513;50.580;8.818;2023-04-15T03:00:07;98177.34;;;5.99;100.00
10921;BME280;5513;50.580;8.818;2023-04-15T03:02:39;98171.22;;;6.27;100.00
10921;BME280;5513;50.580;8.818;2023-04-15T03:05:11;98172.72;;;6.17;100.00
10921;BME280;5513;50.580;8.818;2023-04-15T03:07:39;98175.06;;;6.08;100.00
10921;BME280;5513;50.580;8.818;2023-04-15T03:10:08;98168.97;;;6.21;100.00
10921;BME280;5513;50.580;8.818;2023-04-15T03:12:38;98171.13;;;6.29;100.00
10921;BME280;5513;50.580;8.818;2023-04-15T03:15:08;98171.22;;;6.27;100.00
10921;BME280;5513;50.580;8.818;2023-04-15T03:17:39;98168.31;;;6.32;100.00
10921;BME280;5513;50.580;8.818;2023-04-15T03:20:07;98161.34;;;6.17;100.00
10921;BME280;5513;50.580;8.818;2023-04-15T03:22:36;98167.66;;;6.14;100.00
10921;BME280;5513;50.580;8.818;2023-04-15T03:25:04;98169.44;;;6.14;100.00
10921;BME280;5513;50.580;8.818;2023-04-15T03:27:33;98160.44;;;6.18;100.00
10921;BME280;5513;50.580;8.818;2023-04-15T03:30:01;98159.13;;;5.96;100.00
10921;BME280;5513;50.580;8.818;2023-04-15T03:32:30;98156.78;;;5.92;100.00
10921;BME280;5513;50.580;8.818;2023-04-15T03:34:59;98160.13;;;5.80;100.00
10921;BME280;5513;50.580;8.818;2023-04-15T03:37:28;98160.78;;;5.83;100.00
10921;BME280;5513;50.580;8.818;2023-04-15T03:39:57;98157.41;;;5.81;100.00
10921;BME280;5513;50.580;8.818;2023-04-15T03:42:25;98152.59;;;5.88;100.00
10921;BME280;5513;50.580;8.818;2023-04-15T03:44:53;98155.44;;;5.85;100.00
10921;BME280;5513;50.580;8.818;2023-04-15T03:47:22;98148.06;;;5.91;100.00
10921;BME280;5513;50.580;8.818;2023-04-15T03:49:50;98161.25;;;5.90;100.00
10921;BME280;5513;50.580;8.818;2023-04-15T03:52:20;98164.25;;;5.84;100.00
10921;BME280;5513;50.580;8.818;2023-04-15T03:54:48;98151.63;;;5.90;100.00
10921;BME280;5513;50.580;8.818;2023-04-15T03:57:16;98154.66;;;5.68;100.00
10921;BME280;5513;50.580;8.818;2023-04-15T03:59:44;98154.88;;;5.80;100.00
10921;BME280;5513;50.580;8.818;2023-04-15T04:02:12;98153.16;;;5.79;100.00
10921;BME280;5513;50.580;8.818;2023-04-15T04:04:41;98151.47;;;5.63;100.00
10921;BME280;5513;50.580;8.818;2023-04-15T04:07:14;98162.94;;;5.77;100.00
10921;BME280;5513;50.580;8.818;2023-04-15T04:09:44;98163.72;;;5.93;100.00
10921;BME280;5513;50.580;8.818;2023-04-15T04:12:13;98161.00;;;5.94;100.00
10921;BME280;5513;50.580;8.818;2023-04-15T04:14:41;98163.81;;;5.91;100.00
10921;BME280;5513;50.580;8.818;2023-04-15T04:17:10;98162.41;;;6.00;100.00
10921;BME280;5513;50.580;8.818;2023-04-15T04:19:39;98160.91;;;6.10;100.00
10921;BME280;5513;50.580;8.818;2023-04-15T04:22:07;98156.59;;;6.09;100.00
10921;BME280;5513;50.580;8.818;2023-04-15T04:24:35;98162.22;;;5.89;100.00
10921;BME280;5513;50.580;8.818;2023-04-15T04:27:05;98168.13;;;5.92;100.00
10921;BME280;5513;50.580;8.818;2023-04-15T04:29:33;98162.41;;;6.00;100.00
10921;BME280;5513;50.580;8.818;2023-04-15T04:32:02;98169.06;;;6.06;100.00
10921;BME280;5513;50.580;8.818;2023-04-15T04:34:30;98163.81;;;6.20;100.00
10921;BME280;5513;50.580;8.818;2023-04-15T04:36:58;98171.41;;;6.24;100.00
10921;BME280;5513;50.580;8.818;2023-04-15T04:39:26;98177.50;;;6.25;100.00
10921;BME280;5513;50.580;8.818;2023-04-15T04:41:54;98178.66;;;6.21;100.00
10921;BME280;5513;50.580;8.818;2023-04-15T04:44:24;98167.19;;;6.22;100.00
10921;BME280;5513;50.580;8.818;2023-04-15T04:46:53;98167.97;;;6.10;100.00
10921;BME280;5513;50.580;8.818;2023-04-15T04:49:21;98178.19;;;6.00;100.00
10921;BME280;5513;50.580;8.818;2023-04-15T04:51:49;98170.47;;;5.97;100.00
10921;BME280;5513;50.580;8.818;2023-04-15T04:54:17;98175.56;;;6.00;100.00
10921;BME280;5513;50.580;8.818;2023-04-15T04:56:46;98176.66;;;5.96;100.00
10921;BME280;5513;50.580;8.818;2023-04-15T04:59:15;98175.56;;;6.00;100.00
10921;BME280;5513;50.580;8.818;2023-04-15T05:01:46;98172.53;;;6.20;100.00
10921;BME280;5513;50.580;8.818;2023-04-15T05:04:14;98183.53;;;6.13;100.00
10921;BME280;5513;50.580;8.818;2023-04-15T05:06:43;98182.31;;;6.04;100.00
10921;BME280;5513;50.580;8.818;2023-04-15T05:09:11;98180.41;;;6.06;100.00
10921;BME280;5513;50.580;8.818;2023-04-15T05:11:39;98183.91;;;6.07;100.00
10921;BME280;5513;50.580;8.818;2023-04-15T05:14:07;98188.03;;;6.11;100.00
10921;BME280;5513;50.580;8.818;2023-04-15T05:16:35;98192.34;;;6.12;100.00
10921;BME280;5513;50.580;8.818;2023-04-15T05:19:05;98188.78;;;6.13;100.00
10921;BME280;5513;50.580;8.818;2023-04-15T05:21:33;98190.00;;;6.21;100.00
10921;BME280;5513;50.580;8.818;2023-04-15T05:24:05;98188.31;;;6.20;100.00
10921;BME280;5513;50.580;8.818;2023-04-15T05:26:33;98190.00;;;6.21;100.00
10921;BME280;5513;50.580;8.818;2023-04-15T05:29:01;98188.84;;;6.25;100.00
10921;BME280;5513;50.580;8.818;2023-04-15T05:31:29;98191.59;;;6.38;100.00
10921;BME280;5513;50.580;8.818;2023-04-15T05:33:58;98193.75;;;6.17;100.00
10921;BME280;5513;50.580;8.818;2023-04-15T05:36:27;98201.75;;;6.30;100.00
10921;BME280;5513;50.580;8.818;2023-04-15T05:38:57;98205.41;;;6.27;100.00
10921;BME280;5513;50.580;8.818;2023-04-15T05:41:25;98202.91;;;6.53;100.00
10921;BME280;5513;50.580;8.818;2023-04-15T05:43:53;98203.50;;;6.44;100.00
10921;BME280;5513;50.580;8.818;2023-04-15T05:46:21;98198.53;;;6.39;100.00
10921;BME280;5513;50.580;8.818;2023-04-15T05:48:50;98205.94;;;6.32;100.00
10921;BME280;5513;50.580;8.818;2023-04-15T05:51:20;98200.03;;;6.43;100.00
10921;BME280;5513;50.580;8.818;2023-04-15T05:53:49;98205.00;;;6.48;100.00
10921;BME280;5513;50.580;8.818;2023-04-15T05:56:18;98210.53;;;6.43;100.00
10921;BME280;5513;50.580;8.818;2023-04-15T05:58:47;98205.00;;;6.48;100.00
10921;BME280;5513;50.580;8.818;2023-04-15T06:01:16;98212.06;;;6.47;100.00
10921;BME280;5513;50.580;8.818;2023-04-15T06:03:45;98218.13;;;6.62;100.00
10921;BME280;5513;50.580;8.818;2023-04-15T06:06:13;98219.44;;;6.55;100.00
10921;BME280;5513;50.580;8.818;2023-04-15T06:08:42;98215.69;;;6.59;100.00
10921;BME280;5513;50.580;8.818;2023-04-15T06:11:11;98221.75;;;6.74;100.00
10921;BME280;5513;50.580;8.818;2023-04-15T06:13:40;98218.28;;;6.87;100.00
10921;BME280;5513;50.580;8.818;2023-04-15T06:16:08;98219.22;;;6.86;100.00
10921;BME280;5513;50.580;8.818;2023-04-15T06:18:37;98219.75;;;6.92;100.00
10921;BME280;5513;50.580;8.818;2023-04-15T06:21:06;98232.44;;;6.99;100.00
10921;BME280;5513;50.580;8.818;2023-04-15T06:23:34;98226.22;;;7.00;100.00
10921;BME280;5513;50.580;8.818;2023-04-15T06:26:03;98223.94;;;7.08;100.00
10921;BME280;5513;50.580;8.818;2023-04-15T06:28:32;98227.31;;;7.10;100.00
10921;BME280;5513;50.580;8.818;2023-04-15T06:31:01;98224.53;;;7.26;100.00
10921;BME280;5513;50.580;8.818;2023-04-15T06:33:30;98234.25;;;7.38;100.00
10921;BME280;5513;50.580;8.818;2023-04-15T06:35:58;98227.13;;;7.53;100.00
10921;BME280;5513;50.580;8.818;2023-04-15T06:38:27;98224.56;;;7.52;100.00
10921;BME280;5513;50.580;8.818;2023-04-15T06:40:55;98222.94;;;7.63;100.00
10921;BME280;5513;50.580;8.818;2023-04-15T06:43:23;98224.41;;;7.80;100.00
10921;BME280;5513;50.580;8.818;2023-04-15T06:45:53;98227.09;;;7.93;100.00
10921;BME280;5513;50.580;8.818;2023-04-15T06:48:23;98229.38;;;7.85;100.00
10921;BME280;5513;50.580;8.818;2023-04-15T06:50:51;98235.63;;;7.84;100.00
10921;BME280;5513;50.580;8.818;2023-04-15T06:53:20;98232.13;;;8.09;100.00
10921;BME280;5513;50.580;8.818;2023-04-15T06:55:49;98237.72;;;8.29;100.00
10921;BME280;5513;50.580;8.818;2023-04-15T06:58:17;98240.38;;;8.17;100.00
10921;BME280;5513;50.580;8.818;2023-04-15T07:00:46;98238.38;;;8.20;100.00
10921;BME280;5513;50.580;8.818;2023-04-15T07:03:16;98242.59;;;8.36;100.00
10921;BME280;5513;50.580;8.818;2023-04-15T07:05:44;98247.97;;;8.21;100.00
10921;BME280;5513;50.580;8.818;2023-04-15T07:08:12;98247.66;;;8.13;100.00
10921;BME280;5513;50.580;8.818;2023-04-15T07:10:41;98256.91;;;8.19;100.00
10921;BME280;5513;50.580;8.818;2023-04-15T07:13:09;98255.44;;;7.89;100.00
10921;BME280;5513;50.580;8.818;2023-04-15T07:15:38;98249.97;;;7.92;100.00
10921;BME280;5513;50.580;8.818;2023-04-15T07:18:06;98255.13;;;7.94;100.00
10921;BME280;5513;50.580;8.818;2023-04-15T07:20:37;98245.97;;;8.12;100.00
10921;BME280;5513;50.580;8.818;2023-04-15T07:23:05;98253.13;;;8.10;100.00
10921;BME280;5513;50.580;8.818;2023-04-15T07:25:33;98244.59;;;8.07;100.00
10921;BME280;5513;50.580;8.818;2023-04-15T07:28:01;98240.81;;;8.36;100.00
10921;BME280;5513;50.580;8.818;2023-04-15T07:30:30;98237.03;;;8.40;100.00
10921;BME280;5513;50.580;8.818;2023-04-15T07:32:59;98240.16;;;8.45;100.00
10921;BME280;5513;50.580;8.818;2023-04-15T07:35:27;98233.16;;;8.57;100.00
10921;BME280;5513;50.580;8.818;2023-04-15T07:37:57;98238.63;;;8.79;100.00
10921;BME280;5513;50.580;8.818;2023-04-15T07:40:25;98240.81;;;8.85;100.00
10921;BME280;5513;50.580;8.818;2023-04-15T07:42:55;98245.13;;;8.86;100.00
10921;BME280;5513;50.580;8.818;2023-04-15T07:45:24;98235.22;;;9.14;100.00
10921;BME280;5513;50.580;8.818;2023-04-15T07:47:53;98244.84;;;9.15;100.00
10921;BME280;5513;50.580;8.818;2023-04-15T07:50:23;98238.09;;;9.11;100.00
10921;BME280;5513;50.580;8.818;2023-04-15T07:52:52;98243.03;;;9.15;100.00
10921;BME280;5513;50.580;8.818;2023-04-15T07:55:22;98247.50;;;9.39;100.00
10921;BME280;5513;50.580;8.818;2023-04-15T07:57:52;98245.66;;;9.28;100.00
10921;BME280;5513;50.580;8.818;2023-04-15T08:00:20;98244.44;;;9.32;100.00
10921;BME280;5513;50.580;8.818;2023-04-15T08:02:48;98239.22;;;9.43;100.00
10921;BME280;5513;50.580;8.818;2023-04-15T08:05:19;98235.00;;;9.41;100.00
10921;BME280;5513;50.580;8.818;2023-04-15T08:07:47;98239.84;;;9.47;100.00
10921;BME280;5513;50.580;8.818;2023-04-15T08:10:15;98240.84;;;9.57;100.00
10921;BME280;5513;50.580;8.818;2023-04-15T08:12:45;98249.19;;;9.40;100.00
10921;BME280;5513;50.580;8.818;2023-04-15T08:15:15;98251.31;;;9.59;100.00
10921;BME280;5513;50.580;8.818;2023-04-15T08:17:45;98248.94;;;9.67;100.00
10921;BME280;5513;50.580;8.818;2023-04-15T08:20:14;98247.56;;;9.61;100.00
10921;BME280;5513;50.580;8.818;2023-04-15T08:22:42;98255.38;;;9.87;100.00
10921;BME280;5513;50.580;8.818;2023-04-15T08:25:11;98243.97;;;9.97;100.00
10921;BME280;5513;50.580;8.818;2023-04-15T08:27:39;98245.84;;;9.84;100.00
10921;BME280;5513;50.580;8.818;2023-04-15T08:30:10;98238.69;;;10.09;100.00
10921;BME280;5513;50.580;8.818;2023-04-15T08:32:38;98236.59;;;10.36;100.00
10921;BME280;5513;50.580;8.818;2023-04-15T08:35:07;98237.69;;;10.45;100.00
10921;BME280;5513;50.580;8.818;2023-04-15T08:37:36;98232.13;;;10.59;100.00
10921;BME280;5513;50.580;8.818;2023-04-15T08:40:05;98238.78;;;10.42;100.00
10921;BME280;5513;50.580;8.818;2023-04-15T08:42:36;98237.31;;;10.49;100.00
10921;BME280;5513;50.580;8.818;2023-04-15T08:45:12;98236.84;;;10.33;100.00
10921;BME280;5513;50.580;8.818;2023-04-15T08:47:42;98235.63;;;10.48;100.00
10921;BME280;5513;50.580;8.818;2023-04-15T08:50:11;98235.75;;;10.47;100.00
10921;BME280;5513;50.580;8.818;2023-04-15T08:52:40;98231.66;;;10.76;100.00
10921;BME280;5513;50.580;8.818;2023-04-15T08:55:08;98231.16;;;10.60;100.00
10921;BME280;5513;50.580;8.818;2023-04-15T08:57:37;98228.50;;;10.60;100.00
10921;BME280;5513;50.580;8.818;2023-04-15T09:00:06;98233.09;;;10.47;100.00
10921;BME280;5513;50.580;8.818;2023-04-15T09:02:37;98233.84;;;10.71;100.00
10921;BME280;5513;50.580;8.818;2023-04-15T09:05:07;98237.31;;;10.60;100.00
10921;BME280;5513;50.580;8.818;2023-04-15T09:07:35;98233.81;;;10.49;100.00
10921;BME280;5513;50.580;8.818;2023-04-15T09:10:04;98229.63;;;10.46;100.00
10921;BME280;5513;50.580;8.818;2023-04-15T09:12:33;98238.53;;;10.45;100.00
10921;BME280;5513;50.580;8.818;2023-04-15T09:15:02;98244.16;;;10.29;100.00
10921;BME280;5513;50.580;8.818;2023-04-15T09:17:32;98246.69;;;10.31;100.00
10921;BME280;5513;50.580;8.818;2023-04-15T09:20:13;98248.88;;;10.37;100.00
10921;BME280;5513;50.580;8.818;2023-04-15T09:22:44;98245.78;;;10.08;100.00
10921;BME280;5513;50.580;8.818;2023-04-15T09:25:25;98255.78;;;10.04;100.00
10921;BME280;5513;50.580;8.818;2023-04-15T09:27:55;98255.91;;;10.14;100.00
10921;BME280;5513;50.580;8.818;2023-04-15T09:30:24;98258.66;;;10.13;100.00
10921;BME280;5513;50.580;8.818;2023-04-15T09:32:53;98263.91;;;10.01;100.00
10921;BME280;5513;50.580;8.818;2023-04-15T09:35:25;98267.91;;;9.96;100.00
10921;BME280;5513;50.580;8.818;2023-04-15T09:38:02;98274.44;;;10.14;100.00
10921;BME280;5513;50.580;8.818;2023-04-15T09:40:32;98275.78;;;10.31;100.00
10921;BME280;5513;50.580;8.818;2023-04-15T09:43:01;98272.19;;;9.86;100.00
10921;BME280;5513;50.580;8.818;2023-04-15T09:45:29;98279.00;;;9.77;100.00
10921;BME280;5513;50.580;8.818;2023-04-15T09:50:44;98290.91;;;9.83;100.00
10921;BME280;5513;50.580;8.818;2023-04-15T09:53:16;98289.75;;;9.87;100.00
10921;BME280;5513;50.580;8.818;2023-04-15T09:55:48;98291.13;;;9.68;100.00
10921;BME280;5513;50.580;8.818;2023-04-15T09:58:17;98298.72;;;9.84;100.00
10921;BME280;5513;50.580;8.818;2023-04-15T10:00:47;98309.78;;;9.78;100.00
10921;BME280;5513;50.580;8.818;2023-04-15T10:03:18;98309.69;;;9.56;100.00
10921;BME280;5513;50.580;8.818;2023-04-15T10:05:51;98319.97;;;9.48;100.00
10921;BME280;5513;50.580;8.818;2023-04-15T10:08:21;98306.78;;;9.35;100.00
10921;BME280;5513;50.580;8.818;2023-04-15T10:10:50;98318.78;;;9.52;100.00
10921;BME280;5513;50.580;8.818;2023-04-15T10:13:20;98315.97;;;9.18;100.00
10921;BME280;5513;50.580;8.818;2023-04-15T10:15:50;98330.44;;;9.12;100.00
10921;BME280;5513;50.580;8.818;2023-04-15T10:18:22;98328.63;;;9.13;100.00
10921;BME280;5513;50.580;8.818;2023-04-15T10:20:54;98333.50;;;9.06;100.00
10921;BME280;5513;50.580;8.818;2023-04-15T10:23:22;98328.75;;;9.11;100.00
10921;BME280;5513;50.580;8.818;2023-04-15T10:25:52;98333.50;;;9.06;100.00
10921;BME280;5513;50.580;8.818;2023-04-15T10:28:21;98334.75;;;9.13;100.00
10921;BME280;5513;50.580;8.818;2023-04-15T10:30:50;98337.53;;;9.12;100.00
10921;BME280;5513;50.580;8.818;2023-04-15T10:33:21;98337.66;;;9.34;100.00
10921;BME280;5513;50.580;8.818;2023-04-15T10:35:51;98342.16;;;9.21;100.00
10921;BME280;5513;50.580;8.818;2023-04-15T10:38:35;98343.72;;;9.24;100.00
10921;BME280;5513;50.580;8.818;2023-04-15T10:41:15;98339.75;;;9.42;100.00
10921;BME280;5513;50.580;8.818;2023-04-15T10:43:48;98345.94;;;9.30;100.00
10921;BME280;5513;50.580;8.818;2023-04-15T10:46:24;98352.00;;;9.43;100.00
10921;BME280;5513;50.580;8.818;2023-04-15T10:49:07;98355.97;;;9.37;100.00
10921;BME280;5513;50.580;8.818;2023-04-15T10:51:37;98362.47;;;9.44;100.00
10921;BME280;5513;50.580;8.818;2023-04-15T10:54:13;98358.03;;;9.45;100.00
10921;BME280;5513;50.580;8.818;2023-04-15T10:56:41;98357.88;;;9.23;100.00
10921;BME280;5513;50.580;8.818;2023-04-15T10:59:10;98357.41;;;9.41;100.00
10921;BME280;5513;50.580;8.818;2023-04-15T11:01:53;98361.50;;;9.45;100.00
10921;BME280;5513;50.580;8.818;2023-04-15T11:04:51;98371.94;;;9.60;100.00
10921;BME280;5513;50.580;8.818;2023-04-15T11:07:33;98367.38;;;9.25;100.00
10921;BME280;5513;50.580;8.818;2023-04-15T11:10:03;98361.28;;;9.12;100.00
10921;BME280;5513;50.580;8.818;2023-04-15T11:12:53;98375.31;;;9.25;100.00
10921;BME280;5513;50.580;8.818;2023-04-15T11:15:28;98362.75;;;9.29;100.00
10921;BME280;5513;50.580;8.818;2023-04-15T11:17:58;98381.00;;;9.32;100.00
10921;BME280;5513;50.580;8.818;2023-04-15T11:20:26;98374.59;;;9.23;100.00
10921;BME280;5513;50.580;8.818;2023-04-15T11:22:54;98385.34;;;9.33;100.00
10921;BME280;5513;50.580;8.818;2023-04-15T11:25:42;98396.28;;;9.52;100.00
10921;BME280;5513;50.580;8.818;2023-04-15T11:28:12;98400.03;;;9.37;100.00
10921;BME280;5513;50.580;8.818;2023-04-15T11:30:41;98402.47;;;9.40;100.00
10921;BME280;5513;50.580;8.818;2023-04-15T11:33:11;98398.63;;;9.44;100.00
10921;BME280;5513;50.580;8.818;2023-04-15T11:35:40;98394.53;;;9.40;100.00
10921;BME280;5513;50.580;8.818;2023-04-15T11:38:10;98404.69;;;9.33;100.00
10921;BME280;5513;50.580;8.818;2023-04-15T11:40:43;98417.06;;;9.33;100.00
10921;BME280;5513;50.580;8.818;2023-04-15T11:43:14;98412.31;;;9.38;100.00
10921;BME280;5513;50.580;8.818;2023-04-15T11:45:51;98406.25;;;9.36;100.00
10921;BME280;5513;50.580;8.818;2023-04-15T11:48:22;98416.72;;;9.50;100.00
10921;BME280;5513;50.580;8.818;2023-04-15T11:50:55;98411.84;;;9.44;100.00
10921;BME280;5513;50.580;8.818;2023-04-15T11:53:34;98413.94;;;9.52;100.00
10921;BME280;5513;50.580;8.818;2023-04-15T11:56:05;98412.69;;;9.44;100.00
10921;BME280;5513;50.580;8.818;2023-04-15T11:58:36;98407.03;;;9.38;100.00
10921;BME280;5513;50.580;8.818;2023-04-15T12:01:05;98415.56;;;9.41;100.00
10921;BME280;5513;50.580;8.818;2023-04-15T12:03:38;98413.94;;;9.52;100.00
10921;BME280;5513;50.580;8.818;2023-04-15T12:06:15;98418.81;;;9.58;100.00
10921;BME280;5513;50.580;8.818;2023-04-15T12:09:06;98424.09;;;9.58;100.00
10921;BME280;5513;50.580;8.818;2023-04-15T12:11:39;98426.03;;;9.43;100.00
10921;BME280;5513;50.580;8.818;2023-04-15T12:14:10;98431.84;;;9.48;100.00
10921;BME280;5513;50.580;8.818;2023-04-15T12:16:41;98436.66;;;9.54;100.00
10921;BME280;5513;50.580;8.818;2023-04-15T12:19:17;98437.31;;;9.45;100.00
10921;BME280;5513;50.580;8.818;2023-04-15T12:21:47;98439.88;;;9.34;100.00
10921;BME280;5513;50.580;8.818;2023-04-15T12:24:19;98436.28;;;9.35;100.00
10921;BME280;5513;50.580;8.818;2023-04-15T12:26:51;98431.66;;;9.38;100.00
10921;BME280;5513;50.580;8.818;2023-04-15T12:29:25;98450.03;;;9.40;100.00
10921;BME280;5513;50.580;8.818;2023-04-15T12:31:56;98446.97;;;9.46;100.00
10921;BME280;5513;50.580;8.818;2023-04-15T12:34:28;98444.31;;;9.46;100.00
10921;BME280;5513;50.580;8.818;2023-04-15T12:36:58;98450.97;;;9.39;100.00
10921;BME280;5513;50.580;8.818;2023-04-15T12:39:28;98460.59;;;9.40;100.00
10921;BME280;5513;50.580;8.818;2023-04-15T12:41:58;98464.31;;;9.37;100.00
10921;BME280;5513;50.580;8.818;2023-04-15T12:44:27;98466.84;;;9.39;100.00
10921;BME280;5513;50.580;8.818;2023-04-15T12:46:56;98468.00;;;9.35;100.00
10921;BME280;5513;50.580;8.818;2023-04-15T12:49:26;98462.81;;;9.46;100.00
10921;BME280;5513;50.580;8.818;2023-04-15T12:51:58;98476.03;;;9.46;100.00
10921;BME280;5513;50.580;8.818;2023-04-15T12:54:27;98473.91;;;9.51;100.00
10921;BME280;5513;50.580;8.818;2023-04-15T12:56:58;98475.81;;;9.49;100.00
10921;BME280;5513;50.580;8.818;2023-04-15T12:59:27;98473.91;;;9.51;100.00
10921;BME280;5513;50.580;8.818;2023-04-15T13:01:55;98477.91;;;9.44;100.00
10921;BME280;5513;50.580;8.818;2023-04-15T13:04:26;98479.59;;;9.45;100.00
10921;BME280;5513;50.580;8.818;2023-04-15T13:06:58;98477.72;;;9.47;100.00
10921;BME280;5513;50.580;8.818;2023-04-15T13:09:26;98493.56;;;9.34;100.00
10921;BME280;5513;50.580;8.818;2023-04-15T13:11:55;98485.53;;;9.36;100.00
10921;BME280;5513;50.580;8.818;2023-04-15T13:14:24;98487.78;;;9.29;100.00
10921;BME280;5513;50.580;8.818;2023-04-15T13:16:53;98504.03;;;9.36;100.00
10921;BME280;5513;50.580;8.818;2023-04-15T13:19:21;98498.97;;;9.33;100.00
10921;BME280;5513;50.580;8.818;2023-04-15T13:21:49;98491.06;;;9.20;100.00
10921;BME280;5513;50.580;8.818;2023-04-15T13:24:17;98499.22;;;9.17;100.00
10921;BME280;5513;50.580;8.818;2023-04-15T13:26:45;98495.81;;;9.15;100.00